Flight Track Log - Related Links

Times and Time Zones

All times are in EDT time to prevent confusion due to time zone crossing. See the DAL268 flight status page for this flight to view local times or setup timezone preferences in your user account.

Time Position Orientation Groundspeed Altitude Reporting Facility
EDT Latitude Longitude Course Direction KTS km/h feet Rate Location/Type
Thu 14:31:50 37.6229 -122.3700 29° Northeast 164 304 200  Level FlightAware ADS-B
Thu 14:32:04 37.6318 -122.3640 28° Northeast 163 303 800 2.400 Climbing FlightAware ADS-B
Thu 14:32:10 37.6356 -122.3600 40° Northeast 169 312 1.000 2.000 Climbing FlightAware ADS-B
Thu 14:32:16 37.6387 -122.3560 46° Northeast 170 315 1.200 2.000 Climbing FlightAware ADS-B
Thu 14:32:31 37.6468 -122.3440 50° Northeast 181 335 1.700 1.935 Climbing FlightAware ADS-B
Thu 14:32:47 37.6566 -122.3310 46° Northeast 193 357 2.200 2.077 Climbing FlightAware ADS-B
Thu 14:32:57 37.6628 -122.3220 49° Northeast 198 367 2.600 2.077 Climbing FlightAware ADS-B
Thu 14:33:13 37.6730 -122.3080 47° Northeast 211 391 3.100 2.000 Climbing FlightAware ADS-B
Thu 14:33:30 37.6847 -122.2920 47° Northeast 226 418 3.700 1.814 Climbing FlightAware ADS-B
Thu 14:33:56 37.7041 -122.2640 49° Northeast 256 475 4.400 1.909 Climbing FlightAware ADS-B
Thu 14:34:14 37.7186 -122.2430 49° Northeast 264 489 5.100 2.545 Climbing FlightAware ADS-B
Thu 14:34:29 37.7311 -122.2250 49° Northeast 271 502 5.800 2.842 Climbing FlightAware ADS-B
Thu 14:34:52 37.7500 -122.1990 47° Northeast 274 507 6.900 2.700 Climbing FlightAware ADS-B
Thu 14:35:09 37.7648 -122.1780 48° Northeast 282 523 7.600 2.471 Climbing FlightAware ADS-B
Thu 14:35:26 37.7799 -122.1570 48° Northeast 287 531 8.300 2.444 Climbing FlightAware ADS-B
Thu 14:35:36 37.7897 -122.1450 44° Northeast 291 539 8.700 2.571 Climbing FlightAware ADS-B
Thu 14:35:47 37.8011 -122.1340 37° Northeast 293 542 9.200 2.667 Climbing FlightAware ADS-B
Thu 14:36:03 37.8189 -122.1180 35° Northeast 294 544 9.900 1.957 Climbing FlightAware ADS-B
Thu 14:36:33 37.8537 -122.0850 37° Northeast 319 591 10.700 1.279 Climbing FlightAware ADS-B
Thu 14:37:04 37.8927 -122.0500 35° Northeast 354 655 11.200 1.180 Climbing FlightAware ADS-B
Thu 14:37:34 37.9343 -122.0130 35° Northeast 377 698 11.900 1.770 Climbing FlightAware ADS-B
Thu 14:38:05 37.9801 -121.9710 36° Northeast 388 719 13.000 2.108 Climbing FlightAware ADS-B
Thu 14:38:48 38.0432 -121.9150 35° Northeast 398 737 14.500 2.047 Climbing FlightAware ADS-B
Thu 14:39:30 38.1060 -121.8580 36° Northeast 407 753 15.900 1.948 Climbing FlightAware ADS-B
Thu 14:40:05 38.1570 -121.8030 40° Northeast 420 777 17.000 1.800 Climbing FlightAware ADS-B
Thu 14:40:40 38.1980 -121.7400 50° Northeast 426 789 18.000 1.859 Climbing FlightAware ADS-B
Thu 14:41:16 38.2460 -121.6650 51° Northeast 432 800 19.200 1.853 Climbing FlightAware ADS-B
Thu 14:41:48 38.2850 -121.6010 52° Northeast 437 810 20.100 1.775 Climbing FlightAware ADS-B
Thu 14:42:27 38.3340 -121.5230 51° Northeast 442 819 21.300 1.784 Climbing FlightAware ADS-B
Thu 14:43:02 38.3800 -121.4490 52° Northeast 449 832 22.300 1.606 Climbing FlightAware ADS-B
Thu 14:43:38 38.4270 -121.3750 51° Northeast 455 843 23.200 1.500 Climbing FlightAware ADS-B
Thu 14:44:10 38.4700 -121.3060 51° Northeast 462 856 24.000 1.545 Climbing FlightAware ADS-B
Thu 14:44:44 38.5160 -121.2340 51° Northeast 467 864 24.900 1.500 Climbing FlightAware ADS-B
Thu 14:45:18 38.5620 -121.1610 51° Northeast 471 872 25.700 1.406 Climbing FlightAware ADS-B
Thu 14:45:48 38.6040 -121.0950 51° Northeast 476 882 26.400 1.235 Climbing FlightAware ADS-B
Thu 14:46:26 38.6550 -121.0140 51° Northeast 482 893 27.100 1.200 Climbing FlightAware ADS-B
Thu 14:46:58 38.7010 -120.9400 51° Northeast 487 901 27.800 1.235 Climbing FlightAware ADS-B
Thu 14:47:34 38.7520 -120.8590 51° Northeast 491 909 28.500 1.333 Climbing FlightAware ADS-B
Thu 14:48:10 38.8010 -120.7800 51° Northeast 488 904 29.400 1.676 Climbing FlightAware ADS-B
Thu 14:48:42 38.8470 -120.7050 52° Northeast 485 898 30.400 1.565 Climbing FlightAware ADS-B
Thu 14:49:19 38.8980 -120.6230 51° Northeast 483 895 31.200 1.352 Climbing FlightAware ADS-B
Thu 14:49:53 38.9460 -120.5450 52° Northeast 481 892 32.000 1.371 Climbing FlightAware ADS-B
Thu 14:50:29 38.9950 -120.4670 51° Northeast 481 892 32.800 1.297 Climbing FlightAware ADS-B
Thu 14:51:07 39.0480 -120.3810 52° Northeast 479 887 33.600 1.200 Climbing FlightAware ADS-B
Thu 14:51:39 39.0920 -120.3080 52° Northeast 478 885 34.200 882 Climbing FlightAware ADS-B
Thu 14:52:15 39.1410 -120.2280 52° Northeast 484 896 34.600 904 Climbing FlightAware ADS-B
Thu 14:52:52 39.1910 -120.1470 51° Northeast 481 892 35.300 1.286 Climbing FlightAware ADS-B
Thu 14:53:25 39.2370 -120.0710 52° Northeast 475 880 36.100 1.217 Climbing FlightAware ADS-B
Thu 14:54:01 39.2850 -119.9910 52° Northeast 474 877 36.700 783 Climbing FlightAware ADS-B
Thu 14:54:34 39.3300 -119.9180 51° Northeast 475 880 37.000 257 Climbing FlightAware ADS-B
Thu 14:55:11 39.3810 -119.8330 52° Northeast 474 877 37.000  Level FlightAware ADS-B
Thu 14:55:46 39.4270 -119.7570 52° Northeast 476 882 37.000  Level FlightAware ADS-B
Thu 14:56:19 39.4720 -119.6830 52° Northeast 476 882 37.000  Level FlightAware ADS-B
Thu 14:56:55 39.5210 -119.6010 52° Northeast 475 880 37.000  Level FlightAware ADS-B
Thu 14:57:31 39.5680 -119.5220 52° Northeast 476 882 37.000  Level FlightAware ADS-B
Thu 14:57:59 39.6060 -119.4580 52° Northeast 475 880 37.000  Level FlightAware ADS-B
Thu 14:58:31 39.6490 -119.3860 52° Northeast 475 880 37.000  Level FlightAware ADS-B
Thu 14:59:07 39.6990 -119.3040 52° Northeast 475 880 37.000  Level FlightAware ADS-B
Thu 14:59:43 39.7460 -119.2240 53° Northeast 475 880 37.000  Level FlightAware ADS-B
Thu 15:00:17 39.7920 -119.1470 52° Northeast 475 880 37.000  Level FlightAware ADS-B
Thu 15:00:51 39.8370 -119.0700 53° Northeast 475 880 37.000  Level FlightAware ADS-B
Thu 15:01:29 39.8870 -118.9840 53° Northeast 475 880 37.000  Level FlightAware ADS-B
Thu 15:02:05 39.9360 -118.9010 52° Northeast 475 880 37.000  Level FlightAware ADS-B
Thu 15:02:37 39.9790 -118.8280 52° Northeast 473 875 37.000  Level FlightAware ADS-B
Thu 15:03:13 40.0250 -118.7490 53° Northeast 474 877 37.000  Level FlightAware ADS-B
Thu 15:03:49 40.0740 -118.6650 53° Northeast 474 877 37.000  Level FlightAware ADS-B
Thu 15:04:25 40.1190 -118.5820 55° Northeast 475 880 37.000  Level FlightAware ADS-B
Thu 15:04:57 40.1480 -118.4980 66° East 477 884 37.000  Level FlightAware ADS-B
Thu 15:05:32 40.1730 -118.4060 70° East 477 884 37.000  Level FlightAware ADS-B
Thu 15:06:10 40.2020 -118.3010 70° East 476 882 37.000  Level FlightAware ADS-B
Thu 15:06:48 40.2280 -118.2020 71° East 475 880 37.000  Level FlightAware ADS-B
Thu 15:07:41 40.2650 -118.0680 70° East 475 880 37.000  Level FlightAware ADS-B
Thu 15:08:19 40.2890 -117.9800 70° East 475 880 37.000  Level FlightAware ADS-B
Thu 15:09:15 40.3340 -117.8130 70° East 475 880 37.000  Level FlightAware ADS-B
Thu 15:09:56 40.3650 -117.6990 70° East 474 877 37.000  Level FlightAware ADS-B
Thu 15:10:32 40.3880 -117.6160 70° East 474 877 37.000  Level FlightAware ADS-B
Thu 15:11:22 40.4200 -117.5010 70° East 474 877 37.000  Level FlightAware ADS-B
Thu 15:11:58 40.4430 -117.4190 70° East 474 877 37.000  Level FlightAware ADS-B
Thu 15:12:34 40.4660 -117.3360 70° East 474 877 37.000  Level FlightAware ADS-B
Thu 15:13:10 40.4890 -117.2530 70° East 474 877 37.000  Level FlightAware ADS-B
Thu 15:13:46 40.5110 -117.1700 71° East 474 877 37.000  Level FlightAware ADS-B
Thu 15:14:23 40.5350 -117.0850 70° East 474 877 37.000  Level FlightAware ADS-B
Thu 15:14:59 40.5580 -117.0020 70° East 474 877 37.000  Level FlightAware ADS-B
Thu 15:15:35 40.5810 -116.9190 70° East 474 877 37.000  Level FlightAware ADS-B
Thu 15:16:11 40.6040 -116.8360 70° East 474 877 37.000  Level FlightAware ADS-B
Thu 15:16:47 40.6270 -116.7520 70° East 474 877 37.000  Level FlightAware ADS-B
Thu 15:17:26 40.6520 -116.6620 70° East 474 877 37.000  Level FlightAware ADS-B
Thu 15:18:00 40.6730 -116.5840 70° East 474 877 37.000  Level FlightAware ADS-B
Thu 15:18:36 40.6960 -116.5010 70° East 474 877 37.000  Level FlightAware ADS-B
Thu 15:19:05 40.8339 -116.2420 55° Northeast 37.000  Level FlightAware ADS-B
Thu 15:19:35 40.8638 -116.1640 63° Northeast 470 871 37.000  Level FlightAware ADS-B
Thu 15:20:21 40.9093 -116.0450 63° Northeast 470 871 37.000  Level FlightAware ADS-B
Thu 15:20:51 40.9386 -115.9680 63° Northeast 469 869 37.000  Level FlightAware ADS-B
Thu 15:21:22 40.9682 -115.8900 63° Northeast 470 871 37.000  Level FlightAware ADS-B
Thu 15:21:55 41.0007 -115.8050 63° Northeast 470 871 37.000  Level FlightAware ADS-B
Thu 15:22:49 41.0529 -115.6670 63° Northeast 470 871 37.000  Level FlightAware ADS-B
Thu 15:23:32 41.0948 -115.5550 64° Northeast 470 871 37.000  Level FlightAware ADS-B
Thu 15:24:11 41.1319 -115.4560 64° Northeast 470 871 37.000  Level FlightAware ADS-B
Thu 15:24:51 41.1708 -115.3520 64° Northeast 470 871 37.000  Level FlightAware ADS-B
Thu 15:25:21 41.2000 -115.2740 64° Northeast 470 871 37.000  Level FlightAware ADS-B
Thu 15:25:52 41.2293 -115.1950 64° Northeast 470 871 37.000  Level FlightAware ADS-B
Thu 15:26:23 41.2592 -115.1150 64° Northeast 470 871 37.000  Level FlightAware ADS-B
Thu 15:26:55 41.2893 -115.0330 64° Northeast 471 872 37.000  Level FlightAware ADS-B
Thu 15:27:25 41.3181 -114.9550 64° Northeast 471 872 37.000  Level FlightAware ADS-B
Thu 15:27:55 41.3475 -114.8750 64° Northeast 471 872 37.000  Level FlightAware ADS-B
Thu 15:28:37 41.3810 -114.7850 64° Northeast 471 872 37.000  Level FlightAware ADS-B
Thu 15:28:45 41.3941 -114.7470 65° Northeast 471 872 37.000  Level FlightAware ADS-B
Thu 15:29:25 41.4332 -114.6410 64° Northeast 472 874 37.000  Level FlightAware ADS-B
Thu 15:29:58 41.4641 -114.5560 64° Northeast 474 877 37.000  Level FlightAware ADS-B
Thu 15:30:28 41.4929 -114.4760 64° Northeast 475 880 37.000  Level FlightAware ADS-B
Thu 15:30:59 41.5224 -114.3940 64° Northeast 475 880 37.000  Level FlightAware ADS-B
Thu 15:31:34 41.5558 -114.3020 64° Northeast 476 882 37.000  Level FlightAware ADS-B
Thu 15:32:05 41.5849 -114.2210 64° Northeast 475 880 37.000  Level FlightAware ADS-B
Thu 15:32:35 41.6136 -114.1410 64° Northeast 475 880 37.000  Level FlightAware ADS-B
Thu 15:33:05 41.6420 -114.0610 65° Northeast 475 880 37.000  Level FlightAware ADS-B
Thu 15:33:45 41.6794 -113.9560 64° Northeast 476 882 37.000  Level FlightAware ADS-B
Thu 15:34:21 41.7135 -113.8600 65° Northeast 476 882 37.000  Level FlightAware ADS-B
Thu 15:34:56 41.7458 -113.7680 65° Northeast 474 877 37.000  Level FlightAware ADS-B
Thu 15:35:26 41.7740 -113.6880 65° Northeast 474 877 37.000  Level FlightAware ADS-B
Thu 15:35:56 41.8022 -113.6080 65° Northeast 474 877 37.000  Level FlightAware ADS-B
Thu 15:36:30 41.8337 -113.5180 65° Northeast 474 877 37.000  Level FlightAware ADS-B
Thu 15:37:01 41.8620 -113.4360 65° Northeast 472 874 37.000  Level FlightAware ADS-B
Thu 15:37:28 41.8868 -113.3660 65° Northeast 472 874 37.000  Level FlightAware ADS-B
Thu 15:38:13 41.9286 -113.2460 65° Northeast 471 872 37.000  Level FlightAware ADS-B
Thu 15:38:44 41.9571 -113.1630 65° Northeast 469 869 37.000  Level FlightAware ADS-B
Thu 15:39:19 41.9883 -113.0730 65° Northeast 469 869 37.000  Level FlightAware ADS-B
Thu 15:40:06 42.0311 -112.9480 65° Northeast 469 869 37.000  Level FlightAware ADS-B
Thu 15:40:45 42.0660 -112.8460 65° Northeast 468 867 37.000  Level FlightAware ADS-B
Thu 15:41:00 42.0801 -112.8050 65° Northeast 469 869 37.000  Level FlightAware ADS-B
Thu 15:41:50 42.1240 -112.6760 65° Northeast 467 864 37.000  Level FlightAware ADS-B
Thu 15:42:18 42.1496 -112.6000 66° East 467 864 37.000  Level FlightAware ADS-B
Thu 15:43:11 42.2010 -112.4620 63° Northeast 457 847 37.000  Level FlightAware ADS-B
Thu 15:43:39 42.2390 -112.4030 49° Northeast 444 822 37.000  Level FlightAware ADS-B
Thu 15:44:25 42.2990 -112.3290 42° Northeast 444 822 37.000  Level FlightAware ADS-B
Thu 15:45:03 42.3640 -112.2480 43° Northeast 440 814 37.000  Level FlightAware ADS-B
Thu 15:45:48 42.4240 -112.1750 42° Northeast 440 814 37.000  Level FlightAware ADS-B
Thu 15:46:24 42.4700 -112.1190 42° Northeast 440 814 37.000  Level FlightAware ADS-B
Thu 15:47:08 42.5516 -112.0150 43° Northeast 439 813 37.000  Level FlightAware ADS-B
Thu 15:47:42 42.6024 -111.9520 42° Northeast 439 813 37.000  Level FlightAware ADS-B
Thu 15:48:14 42.6508 -111.8910 43° Northeast 439 813 37.000  Level FlightAware ADS-B
Thu 15:48:45 42.6966 -111.8340 42° Northeast 440 814 37.000  Level FlightAware ADS-B
Thu 15:49:20 42.7484 -111.7690 43° Northeast 441 816 37.000  Level FlightAware ADS-B
Thu 15:49:51 42.7947 -111.7100 43° Northeast 442 819 37.000  Level FlightAware ADS-B
Thu 15:50:22 42.8411 -111.6510 43° Northeast 442 819 37.000  Level FlightAware ADS-B
Thu 15:51:11 42.8390 -111.6670 260° West 440 814 37.000  Level FlightAware ADS-B
Thu 15:51:47 42.8850 -111.6100 42° Northeast 440 814 37.000  Level FlightAware ADS-B
Thu 15:52:23 42.9320 -111.5530 42° Northeast 440 814 37.000  Level FlightAware ADS-B
Thu 15:52:59 42.9780 -111.4960 42° Northeast 440 814 37.000  Level FlightAware ADS-B
Thu 15:53:35 43.0240 -111.4390 42° Northeast 440 814 37.000  Level FlightAware ADS-B
Thu 15:54:11 43.0700 -111.3820 42° Northeast 440 814 37.000  Level FlightAware ADS-B
Thu 15:54:47 43.1170 -111.3250 42° Northeast 440 814 37.000  Level FlightAware ADS-B
Thu 15:55:38 43.2958 -111.0700 42° Northeast 439 813 37.000  Level Salt Lake Center
Thu 15:56:39 43.3947 -110.9428 43° Northeast 438 811 37.000  Level Salt Lake Center
Thu 15:57:41 43.4797 -110.8297 44° Northeast 443 821 37.000  Level Salt Lake Center
Thu 15:58:43 43.5811 -110.6978 43° Northeast 449 832 37.000  Level Salt Lake Center
Thu 16:04:08 44.0700 -110.0510 43° Northeast 444 822 37.000  Level FlightAware ADS-B
Thu 16:04:40 44.1180 -109.9860 44° Northeast 442 819 37.000  Level FlightAware ADS-B
Thu 16:05:24 44.1810 -109.9010 44° Northeast 440 814 37.000  Level FlightAware ADS-B
Thu 16:05:59 44.2320 -109.8320 44° Northeast 439 813 37.000  Level FlightAware ADS-B
Thu 16:06:31 44.2800 -109.7670 44° Northeast 439 813 37.000  Level FlightAware ADS-B
Thu 16:07:08 44.3330 -109.6950 44° Northeast 439 813 37.000  Level FlightAware ADS-B
Thu 16:07:40 44.3800 -109.6320 44° Northeast 440 814 37.000  Level FlightAware ADS-B
Thu 16:08:18 44.4330 -109.5580 45° Northeast 442 819 37.000  Level FlightAware ADS-B
Thu 16:08:52 44.4850 -109.4870 44° Northeast 445 824 37.000  Level FlightAware ADS-B
Thu 16:09:27 44.5360 -109.4180 44° Northeast 446 826 37.000  Level FlightAware ADS-B
Thu 16:10:05 44.5920 -109.3400 45° Northeast 446 826 37.000  Level FlightAware ADS-B
Thu 16:10:36 44.6380 -109.2770 44° Northeast 446 826 37.000  Level FlightAware ADS-B
Thu 16:11:07 44.6820 -109.2160 45° Northeast 448 830 37.000  Level FlightAware ADS-B
Thu 16:11:54 44.7530 -109.1180 44° Northeast 449 832 37.000  Level FlightAware ADS-B
Thu 16:12:30 44.8060 -109.0440 45° Northeast 449 832 37.000  Level FlightAware ADS-B
Thu 16:13:07 44.8580 -108.9710 45° Northeast 449 832 37.000  Level FlightAware ADS-B
Thu 16:13:38 44.9050 -108.9060 44° Northeast 450 834 37.000  Level FlightAware ADS-B
Thu 16:14:15 44.9600 -108.8290 45° Northeast 449 832 37.000  Level FlightAware ADS-B
Thu 16:14:51 45.0130 -108.7540 45° Northeast 449 832 37.000  Level FlightAware ADS-B
Thu 16:15:26 45.0640 -108.6820 45° Northeast 449 832 37.000  Level FlightAware ADS-B
Thu 16:15:59 45.1130 -108.6140 44° Northeast 450 834 37.000  Level FlightAware ADS-B
Thu 16:16:35 45.1660 -108.5370 46° Northeast 451 835 37.000  Level FlightAware ADS-B
Thu 16:17:08 45.2140 -108.4700 45° Northeast 451 835 37.000  Level FlightAware ADS-B
Thu 16:17:43 45.2660 -108.3960 45° Northeast 452 837 37.000  Level FlightAware ADS-B
Thu 16:18:20 45.3190 -108.3190 46° Northeast 452 837 37.000  Level FlightAware ADS-B
Thu 16:18:48 45.3610 -108.2590 45° Northeast 453 838 37.000  Level FlightAware ADS-B
Thu 16:19:23 45.4120 -108.1860 45° Northeast 454 840 37.000  Level FlightAware ADS-B
Thu 16:19:59 45.4670 -108.1070 45° Northeast 453 838 37.000  Level FlightAware ADS-B
Thu 16:20:32 45.5140 -108.0390 45° Northeast 451 835 37.000  Level FlightAware ADS-B
Thu 16:21:08 45.5680 -107.9610 45° Northeast 449 832 37.000  Level FlightAware ADS-B
Thu 16:21:45 45.6220 -107.8830 45° Northeast 449 832 37.000  Level FlightAware ADS-B
Thu 16:22:16 45.6650 -107.8200 46° Northeast 449 832 37.000  Level FlightAware ADS-B
Thu 16:22:54 45.7210 -107.7370 46° Northeast 449 832 37.000  Level FlightAware ADS-B
Thu 16:23:25 45.7660 -107.6730 45° Northeast 449 832 37.000  Level FlightAware ADS-B
Thu 16:24:00 45.8170 -107.5980 46° Northeast 449 832 37.000  Level FlightAware ADS-B
Thu 16:24:43 45.8700 -107.5210 45° Northeast 450 834 37.000  Level FlightAware ADS-B
Thu 16:25:22 45.9360 -107.4220 46° Northeast 452 837 37.000  Level FlightAware ADS-B
Thu 16:25:55 45.9830 -107.3520 46° Northeast 453 838 37.000  Level FlightAware ADS-B
Thu 16:26:31 46.0360 -107.2730 46° Northeast 454 840 37.000  Level FlightAware ADS-B
Thu 16:27:06 46.0870 -107.1970 46° Northeast 455 843 37.000  Level FlightAware ADS-B
Thu 16:27:39 46.1360 -107.1250 46° Northeast 456 845 37.000  Level FlightAware ADS-B
Thu 16:28:11 46.1820 -107.0560 46° Northeast 459 850 37.000  Level FlightAware ADS-B
Thu 16:28:50 46.2400 -106.9670 47° Northeast 460 851 37.000  Level FlightAware ADS-B
Thu 16:29:27 46.2940 -106.8870 46° Northeast 461 855 37.000  Level FlightAware ADS-B
Thu 16:30:00 46.3420 -106.8150 46° Northeast 464 859 37.000  Level FlightAware ADS-B
Thu 16:30:34 46.3920 -106.7380 47° Northeast 464 859 37.000  Level FlightAware ADS-B
Thu 16:31:16 46.4470 -106.6550 46° Northeast 465 861 37.000  Level FlightAware ADS-B
Thu 16:31:53 46.4940 -106.5850 46° Northeast 465 861 37.000  Level FlightAware ADS-B
Thu 16:32:29 46.5390 -106.5160 47° Northeast 465 861 37.000  Level FlightAware ADS-B
Thu 16:33:05 46.5850 -106.4470 46° Northeast 465 861 37.000  Level FlightAware ADS-B
Thu 16:33:40 46.6300 -106.3800 46° Northeast 465 861 37.000  Level FlightAware ADS-B
Thu 16:34:16 46.6750 -106.3110 46° Northeast 465 861 37.000  Level FlightAware ADS-B
Thu 16:34:52 46.7760 -106.1490 48° Northeast 471 872 37.000  Level FlightAware ADS-B
Thu 16:35:28 46.8310 -106.0630 47° Northeast 471 872 37.000  Level FlightAware ADS-B
Thu 16:36:03 46.8830 -105.9830 46° Northeast 471 872 37.000  Level FlightAware ADS-B
Thu 16:36:40 46.9380 -105.8950 48° Northeast 471 872 37.000  Level FlightAware ADS-B
Thu 16:37:04 46.9740 -105.8400 46° Northeast 471 872 37.000  Level FlightAware ADS-B
Thu 16:37:41 47.0280 -105.7540 47° Northeast 471 872 37.000  Level FlightAware ADS-B
Thu 16:38:17 47.0770 -105.6640 51° Northeast 475 880 37.000  Level FlightAware ADS-B
Thu 16:38:31 47.0870 -105.6210 71° East 476 882 37.000  Level FlightAware ADS-B
Thu 16:38:48 47.0920 -105.5670 82° East 478 885 37.000  Level FlightAware ADS-B
Thu 16:39:20 47.0820 -105.4650 98° East 478 885 37.000  Level FlightAware ADS-B
Thu 16:40:13 47.0630 -105.3110 100° East 478 885 37.000  Level FlightAware ADS-B
Thu 16:40:49 47.0510 -105.2130 100° East 478 885 37.000  Level FlightAware ADS-B
Thu 16:41:25 47.0390 -105.1160 100° East 478 885 37.000  Level FlightAware ADS-B
Thu 16:42:01 47.0280 -105.0180 99° East 478 885 37.000  Level FlightAware ADS-B
Thu 16:42:37 47.0160 -104.9200 100° East 478 885 37.000  Level FlightAware ADS-B
Thu 16:43:13 47.0040 -104.8220 100° East 478 885 37.000  Level FlightAware ADS-B
Thu 16:43:50 46.9920 -104.7220 100° East 478 885 37.000  Level FlightAware ADS-B
Thu 16:44:26 46.9800 -104.6240 100° East 478 885 37.000  Level FlightAware ADS-B
Thu 16:45:02 46.9690 -104.5270 99° East 478 885 37.000  Level FlightAware ADS-B
Thu 16:45:38 46.9570 -104.4290 100° East 478 885 37.000  Level FlightAware ADS-B
Thu 16:46:15 46.9450 -104.3290 100° East 478 885 37.000  Level FlightAware ADS-B
Thu 16:46:51 46.9330 -104.2310 100° East 478 885 37.000  Level FlightAware ADS-B
Thu 16:47:27 46.9210 -104.1330 100° East 478 885 37.000  Level FlightAware ADS-B
Thu 16:48:03 46.9090 -104.0360 100° East 478 885 37.000  Level FlightAware ADS-B
Thu 16:48:39 46.8980 -103.9380 99° East 478 885 37.000  Level FlightAware ADS-B
Thu 16:49:15 46.8860 -103.8410 100° East 478 885 37.000  Level FlightAware ADS-B
Thu 16:50:12 46.7994 -103.4322 100° East 485 898 37.000  Level Salt Lake Center
Thu 16:51:14 46.7650 -103.2058 102° East 483 895 37.000  Level Salt Lake Center
Thu 16:52:16 46.7375 -103.0169 102° East 482 893 37.000 145 Level Salt Lake Center
Thu 16:53:18 46.7083 -102.8286 103° East 481 892 37.300 634 Climbing Salt Lake Center
Thu 16:54:19 46.6783 -102.6403 103° East 481 892 38.300 829 Climbing Salt Lake Center
Thu 16:55:21 46.6494 -102.4564 103° East 476 882 39.000 339 Climbing Salt Lake Center
Thu 16:56:23 46.6214 -102.2708 102° East 473 875 39.000  Level Salt Lake Center
Thu 16:57:24 46.5911 -102.0853 103° East 473 875 39.000  Level Salt Lake Center
Thu 16:58:27 46.5553 -101.8617 103° East 475 880 39.000  Level Salt Lake Center
Thu 16:59:47 46.5139 -101.6117 103° East 478 885 39.000  Level Minneapolis Center
Thu 17:00:49 46.4825 -101.4253 104° East 477 884 39.000  Level Minneapolis Center
Thu 17:01:51 46.4508 -101.2392 104° East 475 880 39.000  Level Minneapolis Center
Thu 17:02:53 46.4192 -101.0522 104° East 476 882 39.000  Level Minneapolis Center
Thu 17:03:55 46.3869 -100.8653 104° East 477 884 39.000  Level Minneapolis Center
Thu 17:04:57 46.3481 -100.6439 104° East 474 877 39.000  Level Minneapolis Center
Thu 17:05:59 46.3156 -100.4592 104° East 473 875 39.000  Level Minneapolis Center
Thu 17:07:01 46.2833 -100.2750 104° East 472 874 39.000  Level Minneapolis Center
Thu 17:08:04 46.2494 -100.0922 105° East 471 872 39.000  Level Minneapolis Center
Thu 17:09:06 46.2156 -99.9086 105° East 471 872 39.000  Level Minneapolis Center
Thu 17:10:08 46.1819 -99.7261 105° East 470 871 39.000  Level Minneapolis Center
Thu 17:11:10 46.1489 -99.5428 105° East 471 872 39.000  Level Minneapolis Center
Thu 17:16:32 45.9510 -98.5210 105° East 481 892 39.000  Level FlightAware ADS-B
Thu 17:17:07 45.9310 -98.4180 106° East 482 893 39.000  Level FlightAware ADS-B
Thu 17:17:43 45.9120 -98.3210 106° East 482 893 39.000  Level FlightAware ADS-B
Thu 17:18:18 45.8870 -98.2020 107° East 475 880 39.000  Level FlightAware ADS-B
Thu 17:18:48 45.8680 -98.1070 106° East 472 874 39.000  Level FlightAware ADS-B
Thu 17:19:25 45.8470 -98.0020 106° East 469 869 39.000  Level FlightAware ADS-B
Thu 17:20:10 45.8190 -97.8650 106° East 467 864 39.000  Level FlightAware ADS-B
Thu 17:20:53 45.7960 -97.7480 106° East 467 864 39.000  Level FlightAware ADS-B
Thu 17:21:30 45.7770 -97.6550 106° East 467 864 39.000  Level FlightAware ADS-B
Thu 17:22:06 45.7590 -97.5640 106° East 467 864 39.000  Level FlightAware ADS-B
Thu 17:22:40 45.7280 -97.4190 107° East 471 872 39.000  Level FlightAware ADS-B
Thu 17:23:14 45.7060 -97.3180 107° East 474 877 39.000  Level FlightAware ADS-B
Thu 17:24:07 45.6750 -97.1670 106° East 475 880 39.000  Level FlightAware ADS-B
Thu 17:24:41 45.6510 -97.0560 107° East 479 887 39.000  Level FlightAware ADS-B
Thu 17:25:18 45.6270 -96.9420 107° East 483 895 39.000  Level FlightAware ADS-B
Thu 17:25:50 45.6070 -96.8460 107° East 485 898 39.000  Level FlightAware ADS-B
Thu 17:26:26 45.5830 -96.7350 107° East 486 900 39.000  Level FlightAware ADS-B
Thu 17:26:58 45.5620 -96.6380 107° East 486 900 39.000  Level FlightAware ADS-B
Thu 17:27:34 45.5380 -96.5260 107° East 485 898 39.000  Level FlightAware ADS-B
Thu 17:28:10 45.5130 -96.4150 108° East 484 896 39.000  Level FlightAware ADS-B
Thu 17:28:41 45.4940 -96.3260 107° East 483 895 39.000  Level FlightAware ADS-B
Thu 17:29:16 45.4700 -96.2160 107° East 481 892 39.000  Level FlightAware ADS-B
Thu 17:29:56 45.4430 -96.0940 107° East 475 880 39.000 -395 Level FlightAware ADS-B
Thu 17:30:32 45.4200 -95.9930 108° East 466 863 38.500 -1.333 Descending FlightAware ADS-B
Thu 17:31:08 45.3960 -95.8860 108° East 456 845 37.400 -2.206 Descending FlightAware ADS-B
Thu 17:31:40 45.3760 -95.7950 107° East 457 847 36.000 -2.719 Descending FlightAware ADS-B
Thu 17:32:12 45.3560 -95.7060 108° East 467 864 34.500 -2.250 Descending FlightAware ADS-B
Thu 17:32:52 45.3290 -95.5890 108° East 468 867 33.300 -1.184 Descending FlightAware ADS-B
Thu 17:33:28 45.3040 -95.4790 108° East 475 880 33.000 -265 Descending FlightAware ADS-B
Thu 17:34:00 45.2820 -95.3840 108° East 479 887 33.000  Level FlightAware ADS-B
Thu 17:34:37 45.2580 -95.2770 108° East 480 888 33.000  Level FlightAware ADS-B
Thu 17:35:13 45.2330 -95.1690 108° East 477 884 33.000  Level FlightAware ADS-B
Thu 17:35:44 45.2120 -95.0790 108° East 473 875 33.000  Level FlightAware ADS-B
Thu 17:36:18 45.1880 -94.9770 108° East 472 874 33.000  Level FlightAware ADS-B
Thu 17:36:54 45.1630 -94.8710 108° East 471 872 33.000  Level FlightAware ADS-B
Thu 17:37:30 45.1380 -94.7640 108° East 472 874 33.000  Level FlightAware ADS-B
Thu 17:38:06 45.1130 -94.6590 109° East 471 872 33.000  Level FlightAware ADS-B
Thu 17:38:40 45.0900 -94.5610 108° East 471 872 33.000  Level FlightAware ADS-B
Thu 17:39:16 45.0650 -94.4580 109° East 471 872 33.000  Level FlightAware ADS-B
Thu 17:39:48 45.0420 -94.3620 109° East 471 872 33.000  Level FlightAware ADS-B
Thu 17:40:28 45.0140 -94.2460 109° East 473 875 33.000  Level FlightAware ADS-B
Thu 17:41:00 44.9910 -94.1510 109° East 475 880 33.000  Level FlightAware ADS-B
Thu 17:41:38 44.9640 -94.0400 109° East 477 884 33.000  Level FlightAware ADS-B
Thu 17:42:10 44.9420 -93.9480 109° East 479 887 33.000  Level FlightAware ADS-B
Thu 17:42:44 44.9170 -93.8470 109° East 481 892 33.000  Level FlightAware ADS-B
Thu 17:43:20 44.8900 -93.7400 110° East 482 893 33.000  Level FlightAware ADS-B
Thu 17:43:58 44.8630 -93.6290 109° East 482 893 33.000  Level FlightAware ADS-B
Thu 17:44:33 44.8370 -93.5250 109° East 481 892 33.000  Level FlightAware ADS-B
Thu 17:45:08 44.8110 -93.4200 109° East 481 892 33.000  Level FlightAware ADS-B
Thu 17:45:44 44.7850 -93.3160 109° East 481 892 33.000  Level FlightAware ADS-B
Thu 17:46:16 44.7630 -93.2180 108° East 487 901 33.000  Level FlightAware ADS-B
Thu 17:46:48 44.7550 -93.1200 97° East 498 922 33.000  Level FlightAware ADS-B
Thu 17:47:21 44.7520 -93.0160 92° East 497 921 33.000  Level FlightAware ADS-B
Thu 17:48:04 44.7480 -92.8740 92° East 494 914 33.000  Level FlightAware ADS-B
Thu 17:48:38 44.7440 -92.7660 93° East 493 912 33.000  Level FlightAware ADS-B
Thu 17:49:19 44.7410 -92.6490 92° East 493 912 33.000  Level FlightAware ADS-B
Thu 17:49:55 44.7370 -92.5240 93° East 492 911 33.000  Level FlightAware ADS-B
Thu 17:50:30 44.7330 -92.4080 93° East 492 911 33.000  Level FlightAware ADS-B
Thu 17:51:02 44.7290 -92.3060 93° East 492 911 33.000  Level FlightAware ADS-B
Thu 17:51:38 44.7250 -92.1930 93° East 492 911 33.000  Level FlightAware ADS-B
Thu 17:52:14 44.7210 -92.0750 93° East 493 912 33.000  Level FlightAware ADS-B
Thu 17:52:50 44.7160 -91.9610 93° East 494 914 33.000  Level FlightAware ADS-B
Thu 17:53:20 44.7130 -91.8670 93° East 494 914 33.000  Level FlightAware ADS-B
Thu 17:54:00 44.7080 -91.7370 93° East 495 917 33.000  Level FlightAware ADS-B
Thu 17:54:34 44.7030 -91.6280 94° East 494 914 33.000  Level FlightAware ADS-B
Thu 17:55:10 44.6980 -91.5110 93° East 495 917 33.000  Level FlightAware ADS-B
Thu 17:55:42 44.6940 -91.4100 93° East 495 917 33.000  Level FlightAware ADS-B
Thu 17:56:19 44.6890 -91.2900 93° East 496 919 33.000  Level FlightAware ADS-B
Thu 17:56:55 44.6840 -91.1760 93° East 496 919 33.000  Level FlightAware ADS-B
Thu 17:57:31 44.6780 -91.0590 94° East 498 922 33.000  Level FlightAware ADS-B
Thu 17:58:02 44.6740 -90.9570 93° East 498 922 33.000  Level FlightAware ADS-B
Thu 17:58:34 44.6690 -90.8560 94° East 501 929 33.000  Level FlightAware ADS-B
Thu 17:59:16 44.6790 -90.7180 84° East 507 938 33.000  Level FlightAware ADS-B
Thu 17:59:48 44.6870 -90.6130 84° East 506 937 33.000  Level FlightAware ADS-B
Thu 18:00:23 44.6950 -90.5000 84° East 506 937 33.000  Level FlightAware ADS-B
Thu 18:00:59 44.7020 -90.3840 85° East 506 937 33.000  Level FlightAware ADS-B
Thu 18:01:32 44.7070 -90.2760 86° East 505 935 33.000  Level FlightAware ADS-B
Thu 18:02:08 44.7100 -90.1580 88° East 504 933 33.000  Level FlightAware ADS-B
Thu 18:02:42 44.7090 -90.0470 91° East 502 930 33.000  Level FlightAware ADS-B
Thu 18:03:21 44.7070 -89.9180 91° East 501 929 33.000  Level FlightAware ADS-B
Thu 18:03:50 44.7050 -89.8260 92° East 500 925 33.000  Level FlightAware ADS-B
Thu 18:04:29 44.7010 -89.6980 92° East 499 924 33.000  Level FlightAware ADS-B
Thu 18:05:05 44.6980 -89.5830 92° East 498 922 33.000  Level FlightAware ADS-B
Thu 18:05:34 44.6950 -89.4880 93° East 496 919 33.000  Level FlightAware ADS-B
Thu 18:06:13 44.6910 -89.3650 93° East 497 921 33.000  Level FlightAware ADS-B
Thu 18:06:48 44.6880 -89.2510 92° East 496 919 33.000  Level FlightAware ADS-B
Thu 18:07:21 44.6840 -89.1460 93° East 497 921 33.000  Level FlightAware ADS-B
Thu 18:07:55 44.6810 -89.0350 92° East 499 924 33.000  Level FlightAware ADS-B
Thu 18:08:33 44.6760 -88.9140 93° East 500 925 33.000  Level FlightAware ADS-B
Thu 18:09:17 44.6710 -88.7710 93° East 501 929 33.000  Level FlightAware ADS-B
Thu 18:09:56 44.6690 -88.6630 91° East 501 929 33.000  Level FlightAware ADS-B
Thu 18:10:33 44.6660 -88.5600 92° East 501 929 33.000  Level FlightAware ADS-B
Thu 18:11:16 44.6570 -88.3810 94° East 502 930 33.000  Level FlightAware ADS-B
Thu 18:11:54 44.6530 -88.2780 93° East 502 930 33.000  Level FlightAware ADS-B
Thu 18:12:25 44.6480 -88.1610 93° East 502 930 33.000  Level FlightAware ADS-B
Thu 18:13:08 44.6420 -88.0220 93° East 502 930 33.000  Level FlightAware ADS-B
Thu 18:13:42 44.6370 -87.9100 94° East 502 930 33.000  Level FlightAware ADS-B
Thu 18:14:21 44.6330 -87.7950 93° East 503 932 33.000  Level FlightAware ADS-B
Thu 18:14:58 44.6290 -87.6920 93° East 503 932 33.000  Level FlightAware ADS-B
Thu 18:15:32 44.6210 -87.5530 95° East 503 932 33.000  Level FlightAware ADS-B
Thu 18:16:10 44.6170 -87.4470 93° East 503 932 33.000  Level FlightAware ADS-B
Thu 18:16:47 44.6090 -87.3070 95° East 503 932 33.000  Level FlightAware ADS-B
Thu 18:17:18 44.6040 -87.2100 94° East 503 932 33.000  Level FlightAware ADS-B
Thu 18:17:55 44.5980 -87.0910 94° East 503 932 33.000  Level FlightAware ADS-B
Thu 18:18:32 44.5920 -86.9650 94° East 502 930 33.000  Level FlightAware ADS-B
Thu 18:19:25 44.5840 -86.8110 94° East 502 930 33.000  Level FlightAware ADS-B
Thu 18:20:01 44.5790 -86.7120 94° East 502 930 33.000  Level FlightAware ADS-B
Thu 18:20:34 44.5710 -86.5710 95° East 501 929 33.000  Level FlightAware ADS-B
Thu 18:21:09 44.5650 -86.4620 94° East 499 924 33.000  Level FlightAware ADS-B
Thu 18:21:49 44.5590 -86.3520 94° East 499 924 33.000  Level FlightAware ADS-B
Thu 18:22:26 44.5500 -86.2110 95° East 498 922 33.000  Level FlightAware ADS-B
Thu 18:23:24 44.5390 -86.0240 95° East 497 921 33.000  Level FlightAware ADS-B
Thu 18:23:56 44.5330 -85.9250 95° East 496 919 33.000  Level FlightAware ADS-B
Thu 18:24:32 44.5260 -85.8090 95° East 496 919 33.000  Level FlightAware ADS-B
Thu 18:25:11 44.5180 -85.6830 95° East 496 919 33.000  Level FlightAware ADS-B
Thu 18:25:43 44.5120 -85.5800 95° East 495 917 33.000  Level FlightAware ADS-B
Thu 18:26:18 44.5040 -85.4670 96° East 495 917 33.000  Level FlightAware ADS-B
Thu 18:26:55 44.4970 -85.3520 95° East 495 917 33.000  Level FlightAware ADS-B
Thu 18:27:30 44.4890 -85.2400 96° East 495 917 33.000  Level FlightAware ADS-B
Thu 18:28:03 44.4820 -85.1350 95° East 495 917 33.000  Level FlightAware ADS-B
Thu 18:28:40 44.4740 -85.0210 96° East 495 917 33.000  Level FlightAware ADS-B
Thu 18:29:15 44.4660 -84.9040 95° East 494 914 33.000  Level FlightAware ADS-B
Thu 18:29:48 44.4590 -84.7990 95° East 494 914 33.000  Level FlightAware ADS-B
Thu 18:30:25 44.4510 -84.6840 96° East 494 914 33.000  Level FlightAware ADS-B
Thu 18:30:58 44.4430 -84.5790 96° East 494 914 33.000  Level FlightAware ADS-B
Thu 18:31:35 44.4340 -84.4610 96° East 495 917 33.000  Level FlightAware ADS-B
Thu 18:32:05 44.4270 -84.3640 96° East 496 919 33.000  Level FlightAware ADS-B
Thu 18:32:46 44.4170 -84.2330 96° East 498 922 33.000  Level FlightAware ADS-B
Thu 18:33:19 44.4090 -84.1310 96° East 499 924 33.000  Level FlightAware ADS-B
Thu 18:33:53 44.4010 -84.0250 96° East 500 925 33.000  Level FlightAware ADS-B
Thu 18:34:30 44.3910 -83.9040 97° East 501 929 33.000  Level FlightAware ADS-B
Thu 18:35:02 44.3830 -83.7980 96° East 501 929 33.000  Level FlightAware ADS-B
Thu 18:35:33 44.3760 -83.7060 96° East 500 925 33.000  Level FlightAware ADS-B
Thu 18:36:21 44.3630 -83.5470 96° East 500 925 33.000  Level FlightAware ADS-B
Thu 18:36:53 44.3540 -83.4440 97° East 499 924 33.000  Level FlightAware ADS-B
Thu 18:37:30 44.3440 -83.3280 97° East 498 922 33.000  Level FlightAware ADS-B
Thu 18:38:04 44.3350 -83.2200 97° East 497 921 33.000  Level FlightAware ADS-B
Thu 18:38:42 44.3250 -83.0970 96° East 497 921 33.000  Level FlightAware ADS-B
Thu 18:39:18 44.3150 -82.9820 97° East 496 919 33.000  Level FlightAware ADS-B
Thu 18:39:51 44.3060 -82.8790 97° East 496 919 33.000  Level FlightAware ADS-B
Thu 18:40:24 44.2960 -82.7730 97° East 495 917 33.000  Level FlightAware ADS-B
Thu 18:40:59 44.2860 -82.6630 97° East 494 914 33.000  Level FlightAware ADS-B
Thu 18:41:43 44.2750 -82.5340 97° East 493 912 33.000  Level FlightAware ADS-B
Thu 18:42:19 44.2640 -82.4170 97° East 493 912 33.000  Level FlightAware ADS-B
Thu 18:42:54 44.2540 -82.3090 97° East 493 912 33.000  Level FlightAware ADS-B
Thu 18:43:39 44.2520 -82.1700 91° East 493 912 33.000  Level FlightAware ADS-B
Thu 18:44:14 44.2560 -82.0570 87° East 492 911 33.000  Level FlightAware ADS-B
Thu 18:44:49 44.2600 -81.9410 87° East 491 909 33.000  Level FlightAware ADS-B
Thu 18:45:24 44.2640 -81.8330 87° East 490 908 33.000  Level FlightAware ADS-B
Thu 18:45:59 44.2680 -81.7200 87° East 490 908 33.000  Level FlightAware ADS-B
Thu 18:46:34 44.2710 -81.6150 88° East 489 906 33.000  Level FlightAware ADS-B
Thu 18:47:09 44.2750 -81.5010 87° East 489 906 33.000  Level FlightAware ADS-B
Thu 18:47:39 44.2770 -81.4100 88° East 488 904 33.000  Level FlightAware ADS-B
Thu 18:48:29 44.2820 -81.2550 87° East 488 904 33.000  Level FlightAware ADS-B
Thu 18:49:04 44.2850 -81.1440 88° East 486 900 33.000  Level FlightAware ADS-B
Thu 18:49:34 44.2870 -81.0490 88° East 486 900 33.000  Level FlightAware ADS-B
Thu 18:50:14 44.2910 -80.9240 87° East 486 900 33.000  Level FlightAware ADS-B
Thu 18:50:49 44.2930 -80.8110 89° East 487 901 33.000  Level FlightAware ADS-B
Thu 18:51:29 44.2960 -80.6880 88° East 487 901 33.000 240 Level FlightAware ADS-B
Thu 18:52:04 44.2990 -80.5820 88° East 488 904 33.300 1.029 Climbing FlightAware ADS-B
Thu 18:52:39 44.3010 -80.4670 89° East 488 904 34.200 1.606 Climbing FlightAware ADS-B
Thu 18:53:15 44.3030 -80.3580 88° East 486 900 35.200 1.714 Climbing FlightAware ADS-B
Thu 18:53:49 44.3050 -80.2470 89° East 482 893 36.200 1.652 Climbing FlightAware ADS-B
Thu 18:54:24 44.3070 -80.1390 88° East 479 887 37.100 1.440 Climbing FlightAware ADS-B
Thu 18:55:04 44.3100 -80.0190 88° East 477 884 38.000 1.200 Climbing FlightAware ADS-B
Thu 18:55:34 44.3110 -79.9380 89° East 476 882 38.500 923 Climbing FlightAware ADS-B
Thu 18:56:09 44.3130 -79.8180 89° East 476 882 39.000 429 Climbing FlightAware ADS-B
Thu 18:56:44 44.3150 -79.7110 88° East 473 875 39.000  Level FlightAware ADS-B
Thu 18:57:19 44.3160 -79.6050 89° East 471 872 39.000  Level FlightAware ADS-B
Thu 18:57:59 44.3180 -79.4860 89° East 471 872 39.000  Level FlightAware ADS-B
Thu 18:58:29 44.3190 -79.3930 89° East 471 872 39.000  Level FlightAware ADS-B
Thu 18:59:04 44.3210 -79.2870 88° East 469 869 39.000  Level FlightAware ADS-B
Thu 18:59:34 44.3150 -79.1980 95° East 474 877 39.000  Level FlightAware ADS-B
Thu 19:00:09 44.2950 -79.0920 105° East 477 884 39.000  Level FlightAware ADS-B
Thu 19:00:44 44.2720 -78.9910 108° East 475 880 39.000  Level FlightAware ADS-B
Thu 19:01:19 44.2490 -78.8930 108° East 474 877 39.000  Level FlightAware ADS-B
Thu 19:01:54 44.2270 -78.7960 108° East 473 875 39.000  Level FlightAware ADS-B
Thu 19:02:29 44.2020 -78.6860 108° East 472 874 39.000  Level FlightAware ADS-B
Thu 19:03:04 44.1780 -78.5840 108° East 471 872 39.000  Level FlightAware ADS-B
Thu 19:03:39 44.1560 -78.4870 108° East 470 871 39.000  Level FlightAware ADS-B
Thu 19:04:14 44.1320 -78.3840 108° East 470 871 39.000  Level FlightAware ADS-B
Thu 19:04:49 44.1090 -78.2830 108° East 470 871 39.000  Level FlightAware ADS-B
Thu 19:05:24 44.0870 -78.1890 108° East 472 874 39.000  Level FlightAware ADS-B
Thu 19:05:59 44.0620 -78.0820 108° East 473 875 39.000  Level FlightAware ADS-B
Thu 19:06:34 44.0390 -77.9830 108° East 473 875 39.000  Level FlightAware ADS-B
Thu 19:07:10 44.0130 -77.8750 108° East 472 874 39.000  Level FlightAware ADS-B
Thu 19:07:46 43.9890 -77.7730 108° East 472 874 39.000  Level FlightAware ADS-B
Thu 19:08:22 43.9650 -77.6740 109° East 472 874 39.000  Level FlightAware ADS-B
Thu 19:08:54 43.9420 -77.5760 108° East 473 875 39.000  Level FlightAware ADS-B
Thu 19:09:31 43.9170 -77.4730 109° East 473 875 39.000  Level FlightAware ADS-B
Thu 19:10:07 43.8910 -77.3660 109° East 472 874 39.000  Level FlightAware ADS-B
Thu 19:10:37 43.8700 -77.2790 108° East 472 874 39.000  Level FlightAware ADS-B
Thu 19:11:15 43.8430 -77.1710 109° East 473 875 39.000  Level FlightAware ADS-B
Thu 19:11:41 43.8250 -77.0970 109° East 472 874 39.000  Level FlightAware ADS-B
Thu 19:12:25 43.7940 -76.9690 109° East 470 871 39.000  Level FlightAware ADS-B
Thu 19:13:01 43.7680 -76.8670 109° East 469 869 39.000  Level FlightAware ADS-B
Thu 19:13:35 43.7450 -76.7740 109° East 469 869 39.000  Level FlightAware ADS-B
Thu 19:13:59 43.7180 -76.7090 120° Southeast 474 877 39.000  Level FlightAware ADS-B
Thu 19:14:31 43.6720 -76.6380 132° Southeast 476 882 39.000  Level FlightAware ADS-B
Thu 19:15:07 43.6170 -76.5650 136° Southeast 476 882 39.000  Level FlightAware ADS-B
Thu 19:15:43 43.5580 -76.4880 137° Southeast 476 882 39.000  Level FlightAware ADS-B
Thu 19:16:19 43.4990 -76.4110 137° Southeast 477 884 39.000  Level FlightAware ADS-B
Thu 19:16:51 43.4480 -76.3440 136° Southeast 477 884 39.000  Level FlightAware ADS-B
Thu 19:17:27 43.3910 -76.2700 137° Southeast 477 884 39.000  Level FlightAware ADS-B
Thu 19:18:03 43.3340 -76.1950 136° Southeast 476 882 39.000  Level FlightAware ADS-B
Thu 19:18:35 43.2820 -76.1260 136° Southeast 476 882 39.000  Level FlightAware ADS-B
Thu 19:19:11 43.2260 -76.0530 136° Southeast 476 882 39.000  Level FlightAware ADS-B
Thu 19:19:47 43.1670 -75.9770 137° Southeast 476 882 39.000  Level FlightAware ADS-B
Thu 19:20:23 43.1120 -75.9050 136° Southeast 475 880 39.000  Level FlightAware ADS-B
Thu 19:20:56 43.0600 -75.8390 137° Southeast 476 882 39.000  Level FlightAware ADS-B
Thu 19:21:28 43.0060 -75.7690 137° Southeast 477 884 39.000  Level FlightAware ADS-B
Thu 19:22:00 42.9550 -75.7030 137° Southeast 477 884 39.000  Level FlightAware ADS-B
Thu 19:22:34 42.9020 -75.6350 137° Southeast 477 884 39.000 -171 Level FlightAware ADS-B
Thu 19:23:10 42.8440 -75.5600 137° Southeast 475 880 38.800 -667 Descending FlightAware ADS-B
Thu 19:23:46 42.7860 -75.4870 137° Southeast 474 877 38.200 -833 Descending FlightAware ADS-B
Thu 19:24:22 42.7280 -75.4130 137° Southeast 466 863 37.800 -794 Descending FlightAware ADS-B
Thu 19:24:54 42.6790 -75.3500 137° Southeast 461 855 37.300 -1.676 Descending FlightAware ADS-B
Thu 19:25:30 42.6220 -75.2790 137° Southeast 464 859 35.900 -1.886 Descending FlightAware ADS-B
Thu 19:26:04 42.5690 -75.2120 137° Southeast 470 871 35.100 -771 Descending FlightAware ADS-B
Thu 19:26:40 42.5110 -75.1380 137° Southeast 471 872 35.000 -667 Descending FlightAware ADS-B
Thu 19:27:16 42.4530 -75.0650 137° Southeast 469 869 34.300 -1.739 Descending FlightAware ADS-B
Thu 19:27:49 42.4030 -75.0030 138° Southeast 478 885 33.000 -2.057 Descending FlightAware ADS-B
Thu 19:28:26 42.3410 -74.9250 137° Southeast 481 892 31.900 -1.750 Descending FlightAware ADS-B
Thu 19:29:01 42.2840 -74.8540 137° Southeast 481 892 30.900 -1.833 Descending FlightAware ADS-B
Thu 19:29:38 42.2230 -74.7780 137° Southeast 483 895 29.700 -1.739 Descending FlightAware ADS-B
Thu 19:30:10 42.1700 -74.7130 138° Southeast 481 892 28.900 -1.433 Descending FlightAware ADS-B
Thu 19:30:45 42.1160 -74.6460 137° Southeast 478 885 28.100 -761 Descending FlightAware ADS-B
Thu 19:31:21 42.0540 -74.5690 137° Southeast 474 877 28.000 -87 Descending FlightAware ADS-B
Thu 19:31:54 42.0020 -74.5040 137° Southeast 476 882 28.000  Level FlightAware ADS-B
Thu 19:32:31 41.9500 -74.4210 130° Southeast 477 884 28.000  Level FlightAware ADS-B
Thu 19:32:58 41.9090 -74.3670 136° Southeast 479 887 28.000 -222 Level FlightAware ADS-B
Thu 19:33:25 41.8580 -74.3270 150° Southeast 477 884 27.800 -938 Descending FlightAware ADS-B
Thu 19:34:02 41.7810 -74.2830 157° South 479 887 27.000 -1.068 Descending FlightAware ADS-B
Thu 19:34:38 41.7070 -74.2420 158° South 474 877 26.500 -1.565 Descending FlightAware ADS-B
Thu 19:35:11 41.6410 -74.2060 158° South 469 869 25.200 -2.400 Descending FlightAware ADS-B
Thu 19:35:48 41.5700 -74.1660 157° South 458 848 23.700 -2.583 Descending FlightAware ADS-B
Thu 19:36:23 41.5010 -74.1270 157° South 447 827 22.100 -2.526 Descending FlightAware ADS-B
Thu 19:37:04 41.4240 -74.0930 162° South 437 810 20.500 -1.500 Descending FlightAware ADS-B
Thu 19:37:47 41.3330 -74.0930 180° South 435 806 20.000 -400 Descending FlightAware ADS-B
Thu 19:38:19 41.2690 -74.0990 184° South 435 806 20.000  Level FlightAware ADS-B
Thu 19:38:55 41.1960 -74.1070 185° South 434 803 20.000 -231 Level FlightAware ADS-B
Thu 19:39:37 41.1125 -74.1156 184° South 431 798 19.700 -500 Descending FlightAware ADS-B
Thu 19:40:07 41.0526 -74.1216 184° South 429 795 19.400 -484 Descending FlightAware ADS-B
Thu 19:40:39 40.9891 -74.1279 184° South 427 790 19.200 -369 Descending FlightAware ADS-B
Thu 19:41:12 40.9284 -74.1203 175° South 385 713 19.000 -185 Descending FlightAware ADS-B
Thu 19:41:44 40.8750 -74.1034 167° South 350 649 19.000 -94 Level FlightAware ADS-B
Thu 19:42:16 40.8258 -74.0893 168° South 343 636 18.900 -818 Descending FlightAware ADS-B
Thu 19:42:50 40.7720 -74.0743 168° South 340 629 18.100 -1.437 Descending FlightAware ADS-B
Thu 19:43:27 40.7154 -74.0579 168° South 337 624 17.200 -1.275 Descending FlightAware ADS-B
Thu 19:44:10 40.6600 -74.0420 168° South 323 599 16.400 -1.200 Descending FlightAware ADS-B
Thu 19:44:47 40.6080 -74.0280 168° South 315 583 15.600 -1.457 Descending FlightAware ADS-B
Thu 19:45:20 40.5560 -74.0140 168° South 312 578 14.700 -1.524 Descending FlightAware ADS-B
Thu 19:45:50 40.5170 -74.0040 169° South 310 575 14.000 -1.644 Descending FlightAware ADS-B
Thu 19:46:33 40.4540 -73.9790 163° South 305 565 12.700 -2.080 Descending FlightAware ADS-B
Thu 19:47:05 40.4120 -73.9560 157° South 300 555 11.400 -2.328 Descending FlightAware ADS-B
Thu 19:47:40 40.3700 -73.9300 155° Southeast 294 544 10.100 -2.375 Descending FlightAware ADS-B
Thu 19:47:53 40.3570 -73.9130 135° Southeast 290 538 9.500 -2.595 Descending FlightAware ADS-B
Thu 19:48:17 40.3360 -73.8790 129° Southeast 289 536 8.500 -2.400 Descending FlightAware ADS-B
Thu 19:48:38 40.3190 -73.8470 125° Southeast 288 533 7.700 -2.069 Descending FlightAware ADS-B
Thu 19:48:46 40.3150 -73.8340 112° Southeast 287 531 7.500 -1.500 Descending FlightAware ADS-B
Thu 19:48:54 40.3140 -73.8210 96° East 284 526 7.300 -1.548 Descending FlightAware ADS-B
Thu 19:49:17 40.3210 -73.7850 76° East 279 517 6.700 -1.650 Descending FlightAware ADS-B
Thu 19:49:34 40.3300 -73.7610 64° Northeast 278 515 6.200 -1.655 Descending FlightAware ADS-B
Thu 19:49:46 40.3400 -73.7450 51° Northeast 276 512 5.900 -1.400 Descending FlightAware ADS-B
Thu 19:50:04 40.3550 -73.7230 48° Northeast 276 512 5.500 -1.571 Descending FlightAware ADS-B
Thu 19:50:28 40.3780 -73.6910 47° Northeast 276 512 4.800 -1.435 Descending FlightAware ADS-B
Thu 19:50:50 40.3970 -73.6660 45° Northeast 275 509 4.400 -1.143 Descending FlightAware ADS-B
Thu 19:51:10 40.4150 -73.6410 47° Northeast 273 505 4.000 -900 Descending FlightAware ADS-B
Thu 19:51:30 40.4320 -73.6170 47° Northeast 270 501 3.800 -286 Descending FlightAware ADS-B
Thu 19:51:52 40.4500 -73.5910 48° Northeast 269 499 3.800  Level FlightAware ADS-B
Thu 19:52:14 40.4680 -73.5660 47° Northeast 269 499 3.800  Level FlightAware ADS-B
Thu 19:52:34 40.4850 -73.5420 47° Northeast 269 499 3.800  Level FlightAware ADS-B
Thu 19:52:56 40.5070 -73.5160 42° Northeast 269 499 3.800  Level FlightAware ADS-B
Thu 19:53:12 40.5220 -73.5010 37° Northeast 269 499 3.800  Level FlightAware ADS-B
Thu 19:53:32 40.5430 -73.4800 37° Northeast 270 501 3.800  Level FlightAware ADS-B
Thu 19:53:52 40.5620 -73.4610 37° Northeast 271 502 3.800  Level FlightAware ADS-B
Thu 19:54:00 40.5720 -73.4540 28° Northeast 270 501 3.800  Level FlightAware ADS-B
Thu 19:54:08 40.5820 -73.4510 13° North 268 496 3.800  Level FlightAware ADS-B
Thu 19:54:32 40.6070 -73.4590 346° North 268 496 3.800  Level FlightAware ADS-B
Thu 19:54:47 40.6220 -73.4710 329° Northwest 267 494 3.800 -343 Level FlightAware ADS-B
Thu 19:55:07 40.6390 -73.4860 326° Northwest 262 486 3.600 -1.067 Descending FlightAware ADS-B
Thu 19:55:32 40.6680 -73.5110 327° Northwest 260 481 3.000 -1.200 Descending FlightAware ADS-B
Thu 19:55:52 40.6860 -73.5270 326° Northwest 258 478 2.700 -900 Descending FlightAware ADS-B
Thu 19:56:12 40.7030 -73.5420 326° Northwest 256 475 2.400 -750 Descending FlightAware ADS-B
Thu 19:56:32 40.7240 -73.5590 328° Northwest 244 452 2.200 -682 Descending FlightAware ADS-B
Thu 19:56:56 40.7490 -73.5850 322° Northwest 226 418 1.900 -545 Descending FlightAware ADS-B
Thu 19:57:16 40.7590 -73.6080 300° West 216 401 1.800 -188 Descending FlightAware ADS-B
Thu 19:57:28 40.7640 -73.6210 297° West 210 389 1.800  Level FlightAware ADS-B
Thu 19:57:36 40.7680 -73.6320 296° West 207 383 1.800  Level FlightAware ADS-B
Thu 19:57:44 40.7690 -73.6400 279° West 203 377 1.800  Level FlightAware ADS-B
Thu 19:58:04 40.7610 -73.6610 243° Southwest 183 340 1.800  Level FlightAware ADS-B
Thu 19:58:12 40.7560 -73.6660 217° Southwest 181 335 1.800  Level FlightAware ADS-B
Thu 19:58:24 40.7480 -73.6740 217° Southwest 176 327 1.800  Level FlightAware ADS-B
Thu 19:58:44 40.7360 -73.6840 212° Southwest 157 291 1.800 -286 Level FlightAware ADS-B
Thu 19:59:06 40.7230 -73.6940 210° Southwest 149 275 1.600 -632 Descending FlightAware ADS-B
Thu 19:59:22 40.7120 -73.7030 212° Southwest 151 280 1.400 -811 Descending FlightAware ADS-B
Thu 19:59:43 40.7000 -73.7120 210° Southwest 144 267 1.100 -750 Descending FlightAware ADS-B
Thu 20:00:02 40.6900 -73.7200 211° Southwest 126 233 900 -732 Descending FlightAware ADS-B
Thu 20:00:24 40.6790 -73.7280 209° Southwest 116 214 600 -600 Descending FlightAware ADS-B
Thu 20:00:42 40.6710 -73.7350 214° Southwest 118 219 500 -563 Descending FlightAware ADS-B
Thu 20:00:56 40.6650 -73.7400 212° Southwest 118 219 300 -632 Descending FlightAware ADS-B
Thu 20:01:20 40.6530 -73.7490 210° Southwest 119 220 100 -500 Descending FlightAware ADS-B
Thu 20:01:40 40.6430 -73.7560 208° Southwest 119 220 -300 Descending FlightAware ADS-B

Login

Don't have an account? Register now (free) for customized features, flight alerts, and more!